CheckWX is a tool to help pilots better visualize weather data.  It is not intended as a substitute for an official pre-flight weather briefing.

01:07:12 UTC

EHWO METAR
Woensdrecht Air Base Airport
Bergen Op Zoom, The Netherlands
Current

12 mins ago

EHWO 240055Z AUTO 10003KT 9999 NCD 02/M01 Q1035 BLU
Observed
Feb-24 @ 00:55 UTC
Wind
  • 100° at 3 KTS
Visibility
10,000+ meters
Flight Rules
VFR
Cloud Levels
  • Clear skies
Temperature
C / 36°F
Dewpoint
-1°C / 30°F
Humidity
81%
Altimeter
30.56" Hg
Pressure
1034.91 hPa
Previous

42 mins ago

EHWO 240025Z AUTO VRB01KT 9999 NCD 02/M01 Q1035 BLU
Observed
Feb-24 @ 00:25 UTC
Wind
  • Variable at 1 KTS
Visibility
10,000+ meters
Flight Rules
VFR
Cloud Levels
  • Clear skies
Temperature
C / 36°F
Dewpoint
-1°C / 30°F
Humidity
81%
Altimeter
30.56" Hg
Pressure
1034.91 hPa
Previous

1 hour ago

EHWO 232355Z AUTO 11003KT 9999 NCD 05/00 Q1035 BLU
Observed
Feb-23 @ 23:55 UTC
Wind
  • 110° at 3 KTS
Visibility
10,000+ meters
Flight Rules
VFR
Cloud Levels
  • Clear skies
Temperature
C / 41°F
Dewpoint
C / 32°F
Humidity
70%
Altimeter
30.56" Hg
Pressure
1034.91 hPa